sensor_id;sensor_type;location;lat;lon;timestamp;P1;durP1;ratioP1;P2;durP2;ratioP2
39882;SDS011;55824;52.220;21.040;2023-03-26T00:00:37;4.65;;;2.67;;
39882;SDS011;55824;52.220;21.040;2023-03-26T00:03:04;5.88;;;2.83;;
39882;SDS011;55824;52.220;21.040;2023-03-26T00:05:31;5.18;;;2.80;;
39882;SDS011;55824;52.220;21.040;2023-03-26T00:07:57;4.90;;;2.72;;
39882;SDS011;55824;52.220;21.040;2023-03-26T00:10:23;5.32;;;2.55;;
39882;SDS011;55824;52.220;21.040;2023-03-26T00:12:49;5.22;;;3.25;;
39882;SDS011;55824;52.220;21.040;2023-03-26T00:15:15;4.88;;;2.80;;
39882;SDS011;55824;52.220;21.040;2023-03-26T00:17:41;4.63;;;2.78;;
39882;SDS011;55824;52.220;21.040;2023-03-26T00:20:10;6.15;;;2.80;;
39882;SDS011;55824;52.220;21.040;2023-03-26T00:22:36;4.72;;;2.88;;
39882;SDS011;55824;52.220;21.040;2023-03-26T00:25:03;5.45;;;3.00;;
39882;SDS011;55824;52.220;21.040;2023-03-26T00:27:31;5.18;;;2.80;;
39882;SDS011;55824;52.220;21.040;2023-03-26T00:29:57;3.85;;;2.45;;
39882;SDS011;55824;52.220;21.040;2023-03-26T00:32:24;4.63;;;2.40;;
39882;SDS011;55824;52.220;21.040;2023-03-26T00:34:52;5.43;;;3.22;;
39882;SDS011;55824;52.220;21.040;2023-03-26T00:37:19;4.30;;;2.63;;
39882;SDS011;55824;52.220;21.040;2023-03-26T00:39:50;4.05;;;2.80;;
39882;SDS011;55824;52.220;21.040;2023-03-26T00:42:16;4.32;;;2.70;;
39882;SDS011;55824;52.220;21.040;2023-03-26T00:44:42;4.30;;;2.60;;
39882;SDS011;55824;52.220;21.040;2023-03-26T00:47:08;3.83;;;2.72;;
39882;SDS011;55824;52.220;21.040;2023-03-26T00:49:34;3.90;;;2.67;;
39882;SDS011;55824;52.220;21.040;2023-03-26T00:52:00;4.93;;;2.55;;
39882;SDS011;55824;52.220;21.040;2023-03-26T00:54:27;4.68;;;2.60;;
39882;SDS011;55824;52.220;21.040;2023-03-26T00:56:53;4.72;;;2.80;;
39882;SDS011;55824;52.220;21.040;2023-03-26T00:59:20;4.63;;;2.80;;
39882;SDS011;55824;52.220;21.040;2023-03-26T01:01:46;4.15;;;2.90;;
39882;SDS011;55824;52.220;21.040;2023-03-26T01:04:46;4.25;;;2.70;;
39882;SDS011;55824;52.220;21.040;2023-03-26T01:07:10;5.15;;;3.05;;
39882;SDS011;55824;52.220;21.040;2023-03-26T01:09:39;4.57;;;2.92;;
39882;SDS011;55824;52.220;21.040;2023-03-26T01:12:08;5.03;;;2.72;;
39882;SDS011;55824;52.220;21.040;2023-03-26T01:14:35;5.30;;;2.60;;
39882;SDS011;55824;52.220;21.040;2023-03-26T01:17:03;4.75;;;2.85;;
39882;SDS011;55824;52.220;21.040;2023-03-26T01:19:33;4.32;;;2.63;;
39882;SDS011;55824;52.220;21.040;2023-03-26T01:22:02;3.97;;;2.58;;
39882;SDS011;55824;52.220;21.040;2023-03-26T01:24:29;5.72;;;2.92;;
39882;SDS011;55824;52.220;21.040;2023-03-26T01:40:34;4.60;;;2.75;;
39882;SDS011;55824;52.220;21.040;2023-03-26T01:45:38;5.40;;;3.10;;
39882;SDS011;55824;52.220;21.040;2023-03-26T01:48:05;4.32;;;2.63;;
39882;SDS011;55824;52.220;21.040;2023-03-26T01:50:32;4.63;;;2.78;;
39882;SDS011;55824;52.220;21.040;2023-03-26T01:52:58;4.50;;;2.60;;
39882;SDS011;55824;52.220;21.040;2023-03-26T01:55:25;5.07;;;2.83;;
39882;SDS011;55824;52.220;21.040;2023-03-26T02:00:27;4.70;;;2.97;;
39882;SDS011;55824;52.220;21.040;2023-03-26T02:03:09;4.72;;;2.72;;
39882;SDS011;55824;52.220;21.040;2023-03-26T02:05:56;4.32;;;2.67;;
39882;SDS011;55824;52.220;21.040;2023-03-26T02:08:26;3.72;;;2.38;;
39882;SDS011;55824;52.220;21.040;2023-03-26T02:10:59;4.68;;;2.55;;
39882;SDS011;55824;52.220;21.040;2023-03-26T02:13:28;4.05;;;2.33;;
39882;SDS011;55824;52.220;21.040;2023-03-26T02:15:58;3.63;;;2.60;;
39882;SDS011;55824;52.220;21.040;2023-03-26T02:18:25;5.07;;;2.60;;
39882;SDS011;55824;52.220;21.040;2023-03-26T02:21:00;4.65;;;2.72;;
39882;SDS011;55824;52.220;21.040;2023-03-26T02:23:26;4.75;;;2.60;;
39882;SDS011;55824;52.220;21.040;2023-03-26T02:25:53;4.53;;;2.60;;
39882;SDS011;55824;52.220;21.040;2023-03-26T02:28:19;4.43;;;2.40;;
39882;SDS011;55824;52.220;21.040;2023-03-26T02:30:46;5.20;;;2.97;;
39882;SDS011;55824;52.220;21.040;2023-03-26T02:33:12;4.35;;;2.60;;
39882;SDS011;55824;52.220;21.040;2023-03-26T02:35:39;4.55;;;2.67;;
39882;SDS011;55824;52.220;21.040;2023-03-26T02:38:09;3.50;;;2.17;;
39882;SDS011;55824;52.220;21.040;2023-03-26T02:40:38;4.43;;;2.53;;
39882;SDS011;55824;52.220;21.040;2023-03-26T02:43:04;4.35;;;2.83;;
39882;SDS011;55824;52.220;21.040;2023-03-26T02:45:30;4.18;;;2.60;;
39882;SDS011;55824;52.220;21.040;2023-03-26T02:47:56;4.18;;;2.60;;
39882;SDS011;55824;52.220;21.040;2023-03-26T02:50:24;3.17;;;2.05;;
39882;SDS011;55824;52.220;21.040;2023-03-26T02:52:50;3.05;;;2.35;;
39882;SDS011;55824;52.220;21.040;2023-03-26T02:55:17;3.72;;;2.50;;
39882;SDS011;55824;52.220;21.040;2023-03-26T02:57:43;3.97;;;2.45;;
39882;SDS011;55824;52.220;21.040;2023-03-26T03:00:10;3.83;;;2.47;;
39882;SDS011;55824;52.220;21.040;2023-03-26T03:02:40;3.22;;;2.00;;
39882;SDS011;55824;52.220;21.040;2023-03-26T03:05:08;4.13;;;2.15;;
39882;SDS011;55824;52.220;21.040;2023-03-26T03:07:34;5.25;;;2.42;;
39882;SDS011;55824;52.220;21.040;2023-03-26T03:10:03;4.22;;;2.38;;
39882;SDS011;55824;52.220;21.040;2023-03-26T03:12:33;3.00;;;1.92;;
39882;SDS011;55824;52.220;21.040;2023-03-26T03:15:00;3.78;;;2.42;;
39882;SDS011;55824;52.220;21.040;2023-03-26T03:17:26;3.60;;;2.15;;
39882;SDS011;55824;52.220;21.040;2023-03-26T03:19:52;4.07;;;2.50;;
39882;SDS011;55824;52.220;21.040;2023-03-26T03:22:18;4.13;;;2.60;;
39882;SDS011;55824;52.220;21.040;2023-03-26T03:24:44;4.32;;;2.45;;
39882;SDS011;55824;52.220;21.040;2023-03-26T03:27:10;3.67;;;2.10;;
39882;SDS011;55824;52.220;21.040;2023-03-26T03:29:37;4.90;;;2.63;;
39882;SDS011;55824;52.220;21.040;2023-03-26T03:32:03;6.20;;;2.40;;
39882;SDS011;55824;52.220;21.040;2023-03-26T03:34:29;4.05;;;2.30;;
39882;SDS011;55824;52.220;21.040;2023-03-26T03:36:55;3.58;;;2.30;;
39882;SDS011;55824;52.220;21.040;2023-03-26T03:39:21;3.35;;;2.10;;
39882;SDS011;55824;52.220;21.040;2023-03-26T03:41:47;3.22;;;2.10;;
39882;SDS011;55824;52.220;21.040;2023-03-26T03:44:14;3.05;;;1.80;;
39882;SDS011;55824;52.220;21.040;2023-03-26T03:46:40;3.42;;;2.10;;
39882;SDS011;55824;52.220;21.040;2023-03-26T03:49:06;3.50;;;2.17;;
39882;SDS011;55824;52.220;21.040;2023-03-26T03:51:32;4.40;;;2.08;;
39882;SDS011;55824;52.220;21.040;2023-03-26T03:53:59;3.67;;;2.10;;
39882;SDS011;55824;52.220;21.040;2023-03-26T03:56:25;3.10;;;2.08;;
39882;SDS011;55824;52.220;21.040;2023-03-26T03:58:51;3.85;;;2.10;;
39882;SDS011;55824;52.220;21.040;2023-03-26T04:01:17;4.07;;;2.47;;
39882;SDS011;55824;52.220;21.040;2023-03-26T04:03:46;3.95;;;2.15;;
39882;SDS011;55824;52.220;21.040;2023-03-26T04:06:12;4.13;;;2.22;;
39882;SDS011;55824;52.220;21.040;2023-03-26T04:08:43;2.95;;;1.90;;
39882;SDS011;55824;52.220;21.040;2023-03-26T04:11:09;2.92;;;1.92;;
39882;SDS011;55824;52.220;21.040;2023-03-26T04:13:35;3.38;;;1.83;;
39882;SDS011;55824;52.220;21.040;2023-03-26T04:16:01;3.13;;;1.90;;
39882;SDS011;55824;52.220;21.040;2023-03-26T04:18:27;4.15;;;2.25;;
39882;SDS011;55824;52.220;21.040;2023-03-26T04:20:56;4.50;;;2.22;;
39882;SDS011;55824;52.220;21.040;2023-03-26T04:23:26;3.03;;;2.15;;
39882;SDS011;55824;52.220;21.040;2023-03-26T04:25:53;4.20;;;2.10;;
39882;SDS011;55824;52.220;21.040;2023-03-26T04:28:29;3.00;;;2.10;;
39882;SDS011;55824;52.220;21.040;2023-03-26T04:30:56;3.00;;;1.88;;
39882;SDS011;55824;52.220;21.040;2023-03-26T04:33:25;4.43;;;2.28;;
39882;SDS011;55824;52.220;21.040;2023-03-26T04:35:52;3.95;;;2.30;;
39882;SDS011;55824;52.220;21.040;2023-03-26T04:38:18;3.33;;;1.85;;
39882;SDS011;55824;52.220;21.040;2023-03-26T04:40:45;2.78;;;1.70;;
39882;SDS011;55824;52.220;21.040;2023-03-26T04:43:15;3.15;;;2.05;;
39882;SDS011;55824;52.220;21.040;2023-03-26T04:45:42;3.95;;;1.90;;
39882;SDS011;55824;52.220;21.040;2023-03-26T04:48:09;3.67;;;1.95;;
39882;SDS011;55824;52.220;21.040;2023-03-26T04:50:38;3.88;;;2.20;;
39882;SDS011;55824;52.220;21.040;2023-03-26T04:53:04;3.10;;;1.80;;
39882;SDS011;55824;52.220;21.040;2023-03-26T04:55:32;3.63;;;2.17;;
39882;SDS011;55824;52.220;21.040;2023-03-26T04:57:59;3.50;;;1.98;;
39882;SDS011;55824;52.220;21.040;2023-03-26T05:00:27;4.65;;;2.13;;
39882;SDS011;55824;52.220;21.040;2023-03-26T05:02:53;3.33;;;1.80;;
39882;SDS011;55824;52.220;21.040;2023-03-26T05:05:21;3.90;;;2.20;;
39882;SDS011;55824;52.220;21.040;2023-03-26T05:07:48;3.47;;;2.00;;
39882;SDS011;55824;52.220;21.040;2023-03-26T05:10:14;2.88;;;1.88;;
39882;SDS011;55824;52.220;21.040;2023-03-26T05:12:41;4.10;;;2.17;;
39882;SDS011;55824;52.220;21.040;2023-03-26T05:15:07;3.60;;;2.20;;
39882;SDS011;55824;52.220;21.040;2023-03-26T05:17:34;3.65;;;1.98;;
39882;SDS011;55824;52.220;21.040;2023-03-26T05:20:05;3.45;;;1.88;;
39882;SDS011;55824;52.220;21.040;2023-03-26T05:22:32;2.97;;;1.98;;
39882;SDS011;55824;52.220;21.040;2023-03-26T05:24:58;3.08;;;2.13;;
39882;SDS011;55824;52.220;21.040;2023-03-26T05:27:24;3.83;;;1.80;;
39882;SDS011;55824;52.220;21.040;2023-03-26T05:29:50;3.60;;;1.83;;
39882;SDS011;55824;52.220;21.040;2023-03-26T05:32:16;3.50;;;1.90;;
39882;SDS011;55824;52.220;21.040;2023-03-26T05:34:42;3.55;;;2.05;;
39882;SDS011;55824;52.220;21.040;2023-03-26T05:37:08;4.65;;;1.98;;
39882;SDS011;55824;52.220;21.040;2023-03-26T05:39:34;4.03;;;2.10;;
39882;SDS011;55824;52.220;21.040;2023-03-26T05:42:00;3.20;;;1.90;;
39882;SDS011;55824;52.220;21.040;2023-03-26T05:44:26;2.90;;;1.85;;
39882;SDS011;55824;52.220;21.040;2023-03-26T05:46:52;5.15;;;2.58;;
39882;SDS011;55824;52.220;21.040;2023-03-26T05:49:18;3.47;;;2.15;;
39882;SDS011;55824;52.220;21.040;2023-03-26T05:51:44;3.75;;;2.00;;
39882;SDS011;55824;52.220;21.040;2023-03-26T05:54:10;5.22;;;2.08;;
39882;SDS011;55824;52.220;21.040;2023-03-26T05:56:36;3.60;;;2.08;;
39882;SDS011;55824;52.220;21.040;2023-03-26T05:59:02;4.40;;;2.08;;
39882;SDS011;55824;52.220;21.040;2023-03-26T06:01:28;2.92;;;1.60;;
39882;SDS011;55824;52.220;21.040;2023-03-26T06:03:54;4.47;;;2.10;;
39882;SDS011;55824;52.220;21.040;2023-03-26T06:06:20;3.10;;;1.95;;
39882;SDS011;55824;52.220;21.040;2023-03-26T06:08:47;3.80;;;2.35;;
39882;SDS011;55824;52.220;21.040;2023-03-26T06:11:14;4.15;;;2.20;;
39882;SDS011;55824;52.220;21.040;2023-03-26T06:13:41;3.80;;;1.92;;
39882;SDS011;55824;52.220;21.040;2023-03-26T06:16:07;5.47;;;2.17;;
39882;SDS011;55824;52.220;21.040;2023-03-26T06:18:34;2.80;;;1.70;;
39882;SDS011;55824;52.220;21.040;2023-03-26T06:21:00;3.65;;;2.10;;
39882;SDS011;55824;52.220;21.040;2023-03-26T06:23:26;4.25;;;2.00;;
39882;SDS011;55824;52.220;21.040;2023-03-26T06:25:53;3.75;;;2.15;;
39882;SDS011;55824;52.220;21.040;2023-03-26T06:28:19;3.97;;;2.08;;
39882;SDS011;55824;52.220;21.040;2023-03-26T06:30:45;3.30;;;1.98;;
39882;SDS011;55824;52.220;21.040;2023-03-26T06:33:11;4.05;;;2.20;;
39882;SDS011;55824;52.220;21.040;2023-03-26T06:35:37;3.70;;;1.75;;
39882;SDS011;55824;52.220;21.040;2023-03-26T06:38:03;8.77;;;2.50;;
39882;SDS011;55824;52.220;21.040;2023-03-26T06:40:31;18.25;;;2.67;;
39882;SDS011;55824;52.220;21.040;2023-03-26T06:42:57;8.38;;;2.33;;
39882;SDS011;55824;52.220;21.040;2023-03-26T06:45:24;7.28;;;2.70;;
39882;SDS011;55824;52.220;21.040;2023-03-26T06:47:50;10.05;;;2.70;;
39882;SDS011;55824;52.220;21.040;2023-03-26T06:50:17;5.60;;;2.13;;
39882;SDS011;55824;52.220;21.040;2023-03-26T06:52:43;7.30;;;2.10;;
39882;SDS011;55824;52.220;21.040;2023-03-26T06:55:09;5.88;;;1.85;;
39882;SDS011;55824;52.220;21.040;2023-03-26T06:57:35;6.72;;;2.47;;
39882;SDS011;55824;52.220;21.040;2023-03-26T07:00:01;5.10;;;2.03;;
39882;SDS011;55824;52.220;21.040;2023-03-26T07:02:28;5.50;;;2.30;;
39882;SDS011;55824;52.220;21.040;2023-03-26T07:04:54;4.72;;;1.90;;
39882;SDS011;55824;52.220;21.040;2023-03-26T07:07:20;5.07;;;2.00;;
39882;SDS011;55824;52.220;21.040;2023-03-26T07:09:48;4.50;;;2.10;;
39882;SDS011;55824;52.220;21.040;2023-03-26T07:12:14;5.70;;;2.75;;
39882;SDS011;55824;52.220;21.040;2023-03-26T07:14:40;3.45;;;1.60;;
39882;SDS011;55824;52.220;21.040;2023-03-26T07:17:06;4.55;;;1.63;;
39882;SDS011;55824;52.220;21.040;2023-03-26T07:19:32;5.78;;;2.00;;
39882;SDS011;55824;52.220;21.040;2023-03-26T07:21:58;5.95;;;2.00;;
39882;SDS011;55824;52.220;21.040;2023-03-26T07:24:24;4.28;;;2.03;;
39882;SDS011;55824;52.220;21.040;2023-03-26T07:27:10;3.38;;;1.70;;
39882;SDS011;55824;52.220;21.040;2023-03-26T07:29:47;2.15;;;1.45;;
39882;SDS011;55824;52.220;21.040;2023-03-26T07:37:36;7.05;;;1.40;;
39882;SDS011;55824;52.220;21.040;2023-03-26T07:42:56;4.40;;;2.03;;
39882;SDS011;55824;52.220;21.040;2023-03-26T07:45:28;3.95;;;1.83;;
39882;SDS011;55824;52.220;21.040;2023-03-26T07:47:57;5.05;;;1.85;;
39882;SDS011;55824;52.220;21.040;2023-03-26T07:50:24;2.80;;;1.77;;
39882;SDS011;55824;52.220;21.040;2023-03-26T07:52:50;2.92;;;1.45;;
39882;SDS011;55824;52.220;21.040;2023-03-26T07:55:16;3.90;;;1.70;;
39882;SDS011;55824;52.220;21.040;2023-03-26T07:57:46;3.47;;;1.50;;
39882;SDS011;55824;52.220;21.040;2023-03-26T08:00:16;4.45;;;1.70;;
39882;SDS011;55824;52.220;21.040;2023-03-26T08:05:14;3.95;;;1.60;;
39882;SDS011;55824;52.220;21.040;2023-03-26T08:13:01;4.25;;;1.60;;
39882;SDS011;55824;52.220;21.040;2023-03-26T08:18:19;2.67;;;1.50;;
39882;SDS011;55824;52.220;21.040;2023-03-26T08:20:58;2.60;;;1.30;;
39882;SDS011;55824;52.220;21.040;2023-03-26T08:25:59;3.90;;;1.42;;
39882;SDS011;55824;52.220;21.040;2023-03-26T08:28:29;4.45;;;1.70;;
39882;SDS011;55824;52.220;21.040;2023-03-26T08:30:58;2.53;;;1.45;;
39882;SDS011;55824;52.220;21.040;2023-03-26T08:33:27;3.10;;;1.42;;
39882;SDS011;55824;52.220;21.040;2023-03-26T08:35:53;2.08;;;1.20;;
39882;SDS011;55824;52.220;21.040;2023-03-26T08:38:19;3.35;;;1.25;;
39882;SDS011;55824;52.220;21.040;2023-03-26T08:48:59;2.50;;;1.17;;
39882;SDS011;55824;52.220;21.040;2023-03-26T09:07:11;3.33;;;1.50;;
39882;SDS011;55824;52.220;21.040;2023-03-26T09:09:45;2.38;;;1.30;;
39882;SDS011;55824;52.220;21.040;2023-03-26T09:23:05;1.75;;;1.10;;
39882;SDS011;55824;52.220;21.040;2023-03-26T09:25:37;2.90;;;1.30;;
39882;SDS011;55824;52.220;21.040;2023-03-26T09:28:21;1.73;;;1.33;;
39882;SDS011;55824;52.220;21.040;2023-03-26T09:41:16;2.22;;;1.15;;
39882;SDS011;55824;52.220;21.040;2023-03-26T09:46:33;1.50;;;0.85;;
39882;SDS011;55824;52.220;21.040;2023-03-26T09:51:31;2.33;;;1.17;;
39882;SDS011;55824;52.220;21.040;2023-03-26T09:56:47;2.53;;;1.27;;
39882;SDS011;55824;52.220;21.040;2023-03-26T09:59:22;2.33;;;1.15;;
39882;SDS011;55824;52.220;21.040;2023-03-26T10:07:06;1.55;;;1.17;;
39882;SDS011;55824;52.220;21.040;2023-03-26T10:22:52;1.73;;;1.42;;
39882;SDS011;55824;52.220;21.040;2023-03-26T10:33:55;1.77;;;1.27;;
39882;SDS011;55824;52.220;21.040;2023-03-26T10:36:29;1.55;;;1.00;;
39882;SDS011;55824;52.220;21.040;2023-03-26T10:39:20;2.58;;;1.40;;
39882;SDS011;55824;52.220;21.040;2023-03-26T10:47:13;1.45;;;1.05;;
39882;SDS011;55824;52.220;21.040;2023-03-26T10:52:28;2.25;;;1.10;;
39882;SDS011;55824;52.220;21.040;2023-03-26T10:54:56;1.30;;;0.88;;
39882;SDS011;55824;52.220;21.040;2023-03-26T10:57:37;1.90;;;1.03;;
39882;SDS011;55824;52.220;21.040;2023-03-26T11:00:12;0.80;;;0.80;;
39882;SDS011;55824;52.220;21.040;2023-03-26T11:02:43;2.47;;;1.20;;
39882;SDS011;55824;52.220;21.040;2023-03-26T11:15:55;1.58;;;0.98;;
39882;SDS011;55824;52.220;21.040;2023-03-26T11:18:22;1.33;;;0.82;;
39882;SDS011;55824;52.220;21.040;2023-03-26T11:23:23;1.13;;;0.80;;
39882;SDS011;55824;52.220;21.040;2023-03-26T11:28:26;1.43;;;0.83;;
39882;SDS011;55824;52.220;21.040;2023-03-26T11:33:38;2.25;;;1.23;;
39882;SDS011;55824;52.220;21.040;2023-03-26T11:36:06;3.65;;;1.17;;
39882;SDS011;55824;52.220;21.040;2023-03-26T11:38:37;3.00;;;1.20;;
39882;SDS011;55824;52.220;21.040;2023-03-26T11:41:09;2.00;;;1.40;;
39882;SDS011;55824;52.220;21.040;2023-03-26T11:43:36;2.65;;;1.35;;
39882;SDS011;55824;52.220;21.040;2023-03-26T11:46:03;3.13;;;1.50;;
39882;SDS011;55824;52.220;21.040;2023-03-26T11:51:04;7.18;;;1.55;;
39882;SDS011;55824;52.220;21.040;2023-03-26T11:53:32;4.43;;;1.45;;
39882;SDS011;55824;52.220;21.040;2023-03-26T11:58:33;6.05;;;1.70;;
39882;SDS011;55824;52.220;21.040;2023-03-26T12:01:02;6.80;;;1.63;;
39882;SDS011;55824;52.220;21.040;2023-03-26T12:03:29;1.98;;;1.30;;
39882;SDS011;55824;52.220;21.040;2023-03-26T12:05:59;3.67;;;1.40;;
39882;SDS011;55824;52.220;21.040;2023-03-26T12:08:34;2.08;;;1.35;;
39882;SDS011;55824;52.220;21.040;2023-03-26T12:11:04;2.00;;;1.13;;
39882;SDS011;55824;52.220;21.040;2023-03-26T12:13:40;2.75;;;1.10;;
39882;SDS011;55824;52.220;21.040;2023-03-26T12:18:33;1.58;;;1.10;;
39882;SDS011;55824;52.220;21.040;2023-03-26T12:21:07;4.22;;;1.50;;
39882;SDS011;55824;52.220;21.040;2023-03-26T12:24:23;2.75;;;1.42;;
39882;SDS011;55824;52.220;21.040;2023-03-26T12:28:51;3.20;;;1.13;;
39882;SDS011;55824;52.220;21.040;2023-03-26T12:31:17;1.38;;;0.98;;
39882;SDS011;55824;52.220;21.040;2023-03-26T12:33:45;2.10;;;1.05;;
39882;SDS011;55824;52.220;21.040;2023-03-26T12:36:20;5.97;;;1.00;;
39882;SDS011;55824;52.220;21.040;2023-03-26T12:38:48;5.57;;;1.50;;
39882;SDS011;55824;52.220;21.040;2023-03-26T12:41:15;3.35;;;1.42;;
39882;SDS011;55824;52.220;21.040;2023-03-26T12:43:48;7.80;;;1.58;;
39882;SDS011;55824;52.220;21.040;2023-03-26T12:48:50;2.88;;;1.15;;
39882;SDS011;55824;52.220;21.040;2023-03-26T12:51:22;2.60;;;1.20;;
39882;SDS011;55824;52.220;21.040;2023-03-26T12:53:57;5.03;;;1.20;;
39882;SDS011;55824;52.220;21.040;2023-03-26T12:59:10;1.98;;;1.20;;
39882;SDS011;55824;52.220;21.040;2023-03-26T13:07:00;1.85;;;1.02;;
39882;SDS011;55824;52.220;21.040;2023-03-26T13:09:32;2.65;;;1.50;;
39882;SDS011;55824;52.220;21.040;2023-03-26T13:12:08;2.30;;;0.88;;
39882;SDS011;55824;52.220;21.040;2023-03-26T13:14:55;0.95;;;0.80;;
39882;SDS011;55824;52.220;21.040;2023-03-26T13:17:38;1.85;;;1.15;;
39882;SDS011;55824;52.220;21.040;2023-03-26T13:20:12;2.35;;;1.02;;
39882;SDS011;55824;52.220;21.040;2023-03-26T13:33:19;4.05;;;1.10;;
39882;SDS011;55824;52.220;21.040;2023-03-26T13:35:57;1.95;;;1.15;;
39882;SDS011;55824;52.220;21.040;2023-03-26T13:46:11;1.50;;;1.10;;
39882;SDS011;55824;52.220;21.040;2023-03-26T13:51:13;1.90;;;1.10;;
39882;SDS011;55824;52.220;21.040;2023-03-26T13:54:01;1.17;;;1.00;;
39882;SDS011;55824;52.220;21.040;2023-03-26T13:56:32;2.15;;;1.23;;
39882;SDS011;55824;52.220;21.040;2023-03-26T13:59:22;3.58;;;1.50;;
39882;SDS011;55824;52.220;21.040;2023-03-26T14:01:53;1.92;;;1.13;;
39882;SDS011;55824;52.220;21.040;2023-03-26T14:04:22;4.13;;;1.20;;
39882;SDS011;55824;52.220;21.040;2023-03-26T14:07:04;2.78;;;1.00;;
39882;SDS011;55824;52.220;21.040;2023-03-26T14:09:50;5.63;;;1.50;;
39882;SDS011;55824;52.220;21.040;2023-03-26T14:22:26;1.95;;;0.98;;
39882;SDS011;55824;52.220;21.040;2023-03-26T14:27:30;2.55;;;0.95;;
39882;SDS011;55824;52.220;21.040;2023-03-26T14:43:27;3.83;;;1.20;;
39882;SDS011;55824;52.220;21.040;2023-03-26T14:53:39;2.47;;;1.20;;
39882;SDS011;55824;52.220;21.040;2023-03-26T15:01:27;2.30;;;1.00;;
39882;SDS011;55824;52.220;21.040;2023-03-26T15:14:57;1.88;;;0.77;;
39882;SDS011;55824;52.220;21.040;2023-03-26T15:17:37;3.35;;;1.08;;
39882;SDS011;55824;52.220;21.040;2023-03-26T15:33:43;1.90;;;0.90;;
39882;SDS011;55824;52.220;21.040;2023-03-26T15:41:15;1.38;;;1.00;;
39882;SDS011;55824;52.220;21.040;2023-03-26T15:46:33;1.58;;;0.88;;
39882;SDS011;55824;52.220;21.040;2023-03-26T15:49:23;1.77;;;0.90;;
39882;SDS011;55824;52.220;21.040;2023-03-26T15:59:51;2.28;;;1.00;;
39882;SDS011;55824;52.220;21.040;2023-03-26T16:04:52;2.92;;;1.10;;
39882;SDS011;55824;52.220;21.040;2023-03-26T16:09:55;3.55;;;1.08;;
39882;SDS011;55824;52.220;21.040;2023-03-26T16:12:29;1.30;;;0.90;;
39882;SDS011;55824;52.220;21.040;2023-03-26T16:20:24;2.38;;;1.10;;
39882;SDS011;55824;52.220;21.040;2023-03-26T16:22:59;1.83;;;1.02;;
39882;SDS011;55824;52.220;21.040;2023-03-26T16:25:29;3.40;;;1.25;;
39882;SDS011;55824;52.220;21.040;2023-03-26T16:30:41;5.25;;;1.02;;
39882;SDS011;55824;52.220;21.040;2023-03-26T16:33:17;2.37;;;1.20;;
39882;SDS011;55824;52.220;21.040;2023-03-26T16:36:05;6.70;;;1.73;;
39882;SDS011;55824;52.220;21.040;2023-03-26T16:38:46;4.32;;;1.17;;
39882;SDS011;55824;52.220;21.040;2023-03-26T16:41:33;5.15;;;1.40;;
39882;SDS011;55824;52.220;21.040;2023-03-26T16:44:16;7.13;;;1.70;;
39882;SDS011;55824;52.220;21.040;2023-03-26T16:57:53;8.20;;;3.28;;
39882;SDS011;55824;52.220;21.040;2023-03-26T17:02:54;10.95;;;3.15;;
39882;SDS011;55824;52.220;21.040;2023-03-26T17:05:36;4.18;;;2.17;;
39882;SDS011;55824;52.220;21.040;2023-03-26T17:10:40;10.75;;;3.85;;
39882;SDS011;55824;52.220;21.040;2023-03-26T17:13:10;9.48;;;4.75;;
39882;SDS011;55824;52.220;21.040;2023-03-26T17:15:42;9.60;;;4.18;;
39882;SDS011;55824;52.220;21.040;2023-03-26T17:26:45;5.75;;;2.80;;
39882;SDS011;55824;52.220;21.040;2023-03-26T17:29:30;6.55;;;3.20;;
39882;SDS011;55824;52.220;21.040;2023-03-26T17:32:13;5.55;;;2.85;;
39882;SDS011;55824;52.220;21.040;2023-03-26T17:44:47;5.65;;;2.42;;
39882;SDS011;55824;52.220;21.040;2023-03-26T17:49:50;5.07;;;2.38;;
39882;SDS011;55824;52.220;21.040;2023-03-26T17:52:23;4.93;;;2.00;;
39882;SDS011;55824;52.220;21.040;2023-03-26T17:54:50;5.93;;;2.20;;
39882;SDS011;55824;52.220;21.040;2023-03-26T17:59:45;5.13;;;2.15;;
39882;SDS011;55824;52.220;21.040;2023-03-26T18:02:13;6.40;;;2.20;;
39882;SDS011;55824;52.220;21.040;2023-03-26T18:04:41;4.60;;;2.42;;
39882;SDS011;55824;52.220;21.040;2023-03-26T18:17:43;4.75;;;2.13;;
39882;SDS011;55824;52.220;21.040;2023-03-26T18:20:20;4.18;;;2.40;;
39882;SDS011;55824;52.220;21.040;2023-03-26T18:22:47;5.80;;;2.20;;
39882;SDS011;55824;52.220;21.040;2023-03-26T18:25:24;4.50;;;2.03;;
39882;SDS011;55824;52.220;21.040;2023-03-26T18:27:51;4.18;;;1.92;;
39882;SDS011;55824;52.220;21.040;2023-03-26T18:30:20;5.30;;;2.22;;
39882;SDS011;55824;52.220;21.040;2023-03-26T18:32:59;4.95;;;2.53;;
39882;SDS011;55824;52.220;21.040;2023-03-26T18:35:26;4.47;;;2.47;;
39882;SDS011;55824;52.220;21.040;2023-03-26T18:37:55;7.22;;;2.30;;
39882;SDS011;55824;52.220;21.040;2023-03-26T18:40:30;5.38;;;2.30;;
39882;SDS011;55824;52.220;21.040;2023-03-26T18:42:57;5.82;;;2.08;;
39882;SDS011;55824;52.220;21.040;2023-03-26T18:45:28;4.78;;;2.58;;
39882;SDS011;55824;52.220;21.040;2023-03-26T18:47:57;7.80;;;2.35;;
39882;SDS011;55824;52.220;21.040;2023-03-26T18:50:27;5.07;;;2.47;;
39882;SDS011;55824;52.220;21.040;2023-03-26T18:52:55;4.65;;;2.10;;
39882;SDS011;55824;52.220;21.040;2023-03-26T18:55:25;14.30;;;2.53;;
39882;SDS011;55824;52.220;21.040;2023-03-26T18:57:51;8.55;;;1.83;;
39882;SDS011;55824;52.220;21.040;2023-03-26T19:00:18;6.18;;;2.50;;
39882;SDS011;55824;52.220;21.040;2023-03-26T19:02:46;4.28;;;2.40;;
39882;SDS011;55824;52.220;21.040;2023-03-26T19:05:17;5.50;;;2.05;;
39882;SDS011;55824;52.220;21.040;2023-03-26T19:07:44;4.25;;;1.98;;
39882;SDS011;55824;52.220;21.040;2023-03-26T19:10:14;7.53;;;2.63;;
39882;SDS011;55824;52.220;21.040;2023-03-26T19:12:43;5.05;;;2.28;;
39882;SDS011;55824;52.220;21.040;2023-03-26T19:15:12;4.80;;;2.50;;
39882;SDS011;55824;52.220;21.040;2023-03-26T19:17:41;7.28;;;3.05;;
39882;SDS011;55824;52.220;21.040;2023-03-26T19:20:12;5.05;;;2.20;;
39882;SDS011;55824;52.220;21.040;2023-03-26T19:22:40;3.72;;;2.60;;
39882;SDS011;55824;52.220;21.040;2023-03-26T19:25:08;3.72;;;2.00;;
39882;SDS011;55824;52.220;21.040;2023-03-26T19:27:41;6.18;;;2.25;;
39882;SDS011;55824;52.220;21.040;2023-03-26T19:30:09;4.07;;;2.13;;
39882;SDS011;55824;52.220;21.040;2023-03-26T19:32:36;4.70;;;2.47;;
39882;SDS011;55824;52.220;21.040;2023-03-26T19:35:02;4.28;;;2.47;;
39882;SDS011;55824;52.220;21.040;2023-03-26T19:37:29;3.85;;;2.33;;
39882;SDS011;55824;52.220;21.040;2023-03-26T19:39:59;5.88;;;2.80;;
39882;SDS011;55824;52.220;21.040;2023-03-26T19:42:30;5.00;;;2.70;;
39882;SDS011;55824;52.220;21.040;2023-03-26T19:44:57;4.43;;;2.42;;
39882;SDS011;55824;52.220;21.040;2023-03-26T19:47:56;6.45;;;2.92;;
39882;SDS011;55824;52.220;21.040;2023-03-26T19:50:25;5.10;;;3.00;;
39882;SDS011;55824;52.220;21.040;2023-03-26T19:55:38;10.32;;;3.00;;
39882;SDS011;55824;52.220;21.040;2023-03-26T19:58:04;16.85;;;3.30;;
39882;SDS011;55824;52.220;21.040;2023-03-26T20:00:32;6.45;;;3.20;;
39882;SDS011;55824;52.220;21.040;2023-03-26T20:02:59;9.00;;;3.47;;
39882;SDS011;55824;52.220;21.040;2023-03-26T20:05:26;12.23;;;3.58;;
39882;SDS011;55824;52.220;21.040;2023-03-26T20:07:55;8.02;;;3.33;;
39882;SDS011;55824;52.220;21.040;2023-03-26T20:10:22;5.88;;;3.10;;
39882;SDS011;55824;52.220;21.040;2023-03-26T20:12:48;6.63;;;3.00;;
39882;SDS011;55824;52.220;21.040;2023-03-26T20:15:15;6.53;;;3.65;;
39882;SDS011;55824;52.220;21.040;2023-03-26T20:17:42;7.85;;;4.00;;
39882;SDS011;55824;52.220;21.040;2023-03-26T20:20:09;6.20;;;3.30;;